KONT/ONT METAR and TAF weather

Enter ICAO airport designator
Station Type Date Time Source
KONT METAR 2021/03/09 10:53 UTC NOAA

KONT 091053Z 04004KT 10SM BKN250 08/04 A3009 RMK AO2 SLP188 T00780039


Station Type Date Time Source
KONT Decoded METAR 2021/03/09 10:53 UTC NOAA

ONTARIO INTERNATIONAL AIRPORT, CA, United States (KONT) 34-03N 117-35W 275M
Mar 09, 2021 - 05:53 AM EST / 2021.03.09 1053 UTC
Wind: from the NE (040 degrees) at 5 MPH (4 KT):0
Visibility: 10 mile(s):0
Sky conditions: mostly cloudy
Temperature: 46.0 F (7.8 C)
Dew Point: 39.0 F (3.9 C)
Relative Humidity: 76%
Pressure (altimeter): 30.09 in. Hg (1018 hPa)
ob: KONT 091053Z 04004KT 10SM BKN250 08/04 A3009 RMK AO2 SLP188 T00780039
cycle: 11

Station Type Date Time Source
KONT TAF 2021/03/09 06:33 UTC NOAA

TAF KONT 090530Z 0906/1012 26007KT P6SM FEW060 BKN200
FM091900 25012G22KT P6SM SCT200
FM092100 24015G25KT P6SM SCT030
FM100300 27011KT P6SM BKN030
FM100900 25008KT P6SM VCSH OVC030

Example: see airport list